sensor_id;sensor_type;location;lat;lon;timestamp;P1;durP1;ratioP1;P2;durP2;ratioP2
10166;SDS011;62970;53.130;8.244;2023-06-22T02:19:15;12.83;;;11.63;;
10166;SDS011;62970;53.130;8.244;2023-06-22T02:21:44;16.37;;;14.77;;
10166;SDS011;62970;53.130;8.244;2023-06-22T02:24:13;15.63;;;14.13;;
10166;SDS011;62970;53.130;8.244;2023-06-22T02:26:42;18.20;;;16.40;;
10166;SDS011;62970;53.130;8.244;2023-06-22T02:29:12;17.90;;;15.90;;
10166;SDS011;62970;53.130;8.244;2023-06-22T02:31:41;17.73;;;15.93;;
10166;SDS011;62970;53.130;8.244;2023-06-22T02:34:10;18.20;;;16.40;;
10166;SDS011;62970;53.130;8.244;2023-06-22T02:36:43;17.00;;;15.30;;
10166;SDS011;62970;53.130;8.244;2023-06-22T02:39:16;18.50;;;16.70;;
10166;SDS011;62970;53.130;8.244;2023-06-22T02:41:48;18.27;;;16.47;;
10166;SDS011;62970;53.130;8.244;2023-06-22T02:44:18;19.00;;;17.00;;
10166;SDS011;62970;53.130;8.244;2023-06-22T02:46:48;17.17;;;15.53;;
10166;SDS011;62970;53.130;8.244;2023-06-22T02:49:22;16.50;;;14.90;;
10166;SDS011;62970;53.130;8.244;2023-06-22T02:51:51;18.43;;;16.63;;
10166;SDS011;62970;53.130;8.244;2023-06-22T02:54:20;16.83;;;15.13;;
10166;SDS011;62970;53.130;8.244;2023-06-22T02:56:50;17.13;;;15.53;;
10166;SDS011;62970;53.130;8.244;2023-06-22T02:59:19;19.03;;;17.13;;
10166;SDS011;62970;53.130;8.244;2023-06-22T03:01:50;18.80;;;17.07;;
10166;SDS011;62970;53.130;8.244;2023-06-22T03:04:22;18.57;;;16.67;;
10166;SDS011;62970;53.130;8.244;2023-06-22T03:06:51;16.73;;;15.13;;
10166;SDS011;62970;53.130;8.244;2023-06-22T03:09:20;17.10;;;15.50;;
10166;SDS011;62970;53.130;8.244;2023-06-22T03:11:49;19.67;;;17.77;;
10166;SDS011;62970;53.130;8.244;2023-06-22T03:14:18;17.93;;;16.13;;
10166;SDS011;62970;53.130;8.244;2023-06-22T03:16:47;17.77;;;16.00;;
10166;SDS011;62970;53.130;8.244;2023-06-22T03:19:16;18.57;;;16.83;;
10166;SDS011;62970;53.130;8.244;2023-06-22T03:21:49;17.97;;;16.27;;
10166;SDS011;62970;53.130;8.244;2023-06-22T03:24:18;19.23;;;17.33;;
10166;SDS011;62970;53.130;8.244;2023-06-22T03:26:47;17.90;;;16.27;;
10166;SDS011;62970;53.130;8.244;2023-06-22T03:29:16;18.43;;;16.63;;
10166;SDS011;62970;53.130;8.244;2023-06-22T03:31:45;19.13;;;17.23;;
10166;SDS011;62970;53.130;8.244;2023-06-22T03:34:15;19.67;;;17.67;;
10166;SDS011;62970;53.130;8.244;2023-06-22T03:36:44;18.43;;;16.73;;
10166;SDS011;62970;53.130;8.244;2023-06-22T03:39:17;18.30;;;16.17;;
10166;SDS011;62970;53.130;8.244;2023-06-22T03:44:42;18.30;;;16.60;;
10166;SDS011;62970;53.130;8.244;2023-06-22T03:47:12;17.50;;;15.80;;
10166;SDS011;62970;53.130;8.244;2023-06-22T03:49:42;17.00;;;15.40;;
10166;SDS011;62970;53.130;8.244;2023-06-22T03:54:58;16.73;;;15.07;;
10166;SDS011;62970;53.130;8.244;2023-06-22T03:57:27;17.53;;;15.83;;
10166;SDS011;62970;53.130;8.244;2023-06-22T03:59:57;20.47;;;18.47;;
10166;SDS011;62970;53.130;8.244;2023-06-22T04:02:30;18.03;;;16.13;;
10166;SDS011;62970;53.130;8.244;2023-06-22T04:04:59;17.80;;;16.03;;
10166;SDS011;62970;53.130;8.244;2023-06-22T04:07:29;19.03;;;17.13;;
10166;SDS011;62970;53.130;8.244;2023-06-22T04:10:00;19.43;;;17.50;;
10166;SDS011;62970;53.130;8.244;2023-06-22T04:12:30;19.13;;;17.40;;
10166;SDS011;62970;53.130;8.244;2023-06-22T04:14:59;18.97;;;17.17;;
10166;SDS011;62970;53.130;8.244;2023-06-22T04:17:28;18.60;;;16.80;;
10166;SDS011;62970;53.130;8.244;2023-06-22T04:19:59;19.47;;;17.60;;
10166;SDS011;62970;53.130;8.244;2023-06-22T04:22:30;18.77;;;16.97;;
10166;SDS011;62970;53.130;8.244;2023-06-22T04:25:02;18.90;;;17.10;;
10166;SDS011;62970;53.130;8.244;2023-06-22T04:27:34;19.93;;;17.97;;
10166;SDS011;62970;53.130;8.244;2023-06-22T04:30:06;19.23;;;17.43;;
10166;SDS011;62970;53.130;8.244;2023-06-22T04:32:41;19.77;;;17.87;;
10166;SDS011;62970;53.130;8.244;2023-06-22T04:35:22;18.43;;;16.63;;
10166;SDS011;62970;53.130;8.244;2023-06-22T04:37:53;19.67;;;17.87;;
10166;SDS011;62970;53.130;8.244;2023-06-22T04:40:29;18.23;;;16.43;;
10166;SDS011;62970;53.130;8.244;2023-06-22T04:42:58;18.57;;;16.77;;
10166;SDS011;62970;53.130;8.244;2023-06-22T04:45:27;17.50;;;15.80;;
10166;SDS011;62970;53.130;8.244;2023-06-22T04:47:57;17.83;;;16.03;;
10166;SDS011;62970;53.130;8.244;2023-06-22T04:50:27;19.10;;;17.17;;
10166;SDS011;62970;53.130;8.244;2023-06-22T04:52:56;17.70;;;16.00;;
10166;SDS011;62970;53.130;8.244;2023-06-22T04:55:26;18.27;;;16.57;;
10166;SDS011;62970;53.130;8.244;2023-06-22T04:57:58;18.73;;;16.93;;
10166;SDS011;62970;53.130;8.244;2023-06-22T05:03:05;18.43;;;16.53;;
10166;SDS011;62970;53.130;8.244;2023-06-22T05:05:36;16.40;;;14.90;;
10166;SDS011;62970;53.130;8.244;2023-06-22T05:08:05;17.63;;;15.97;;
10166;SDS011;62970;53.130;8.244;2023-06-22T05:10:37;18.13;;;16.37;;
10166;SDS011;62970;53.130;8.244;2023-06-22T05:13:07;18.30;;;16.60;;
10166;SDS011;62970;53.130;8.244;2023-06-22T05:15:36;18.90;;;16.90;;
10166;SDS011;62970;53.130;8.244;2023-06-22T05:18:05;19.23;;;17.37;;
10166;SDS011;62970;53.130;8.244;2023-06-22T05:20:37;18.27;;;16.47;;
10166;SDS011;62970;53.130;8.244;2023-06-22T05:23:06;18.33;;;16.50;;
10166;SDS011;62970;53.130;8.244;2023-06-22T05:25:38;18.00;;;16.27;;
10166;SDS011;62970;53.130;8.244;2023-06-22T05:28:07;17.83;;;16.20;;
10166;SDS011;62970;53.130;8.244;2023-06-22T05:30:37;17.30;;;15.70;;
10166;SDS011;62970;53.130;8.244;2023-06-22T05:33:06;18.63;;;16.83;;
10166;SDS011;62970;53.130;8.244;2023-06-22T05:35:36;18.07;;;16.40;;
10166;SDS011;62970;53.130;8.244;2023-06-22T05:38:06;16.53;;;14.83;;
10166;SDS011;62970;53.130;8.244;2023-06-22T05:40:38;16.20;;;14.70;;
10166;SDS011;62970;53.130;8.244;2023-06-22T05:43:07;17.43;;;15.73;;
10166;SDS011;62970;53.130;8.244;2023-06-22T05:45:37;17.17;;;15.57;;
10166;SDS011;62970;53.130;8.244;2023-06-22T05:48:07;18.33;;;16.63;;
10166;SDS011;62970;53.130;8.244;2023-06-22T05:50:36;15.77;;;14.27;;
10166;SDS011;62970;53.130;8.244;2023-06-22T05:53:05;15.27;;;13.87;;
10166;SDS011;62970;53.130;8.244;2023-06-22T05:55:35;16.33;;;14.83;;
10166;SDS011;62970;53.130;8.244;2023-06-22T05:58:07;15.40;;;13.90;;
10166;SDS011;62970;53.130;8.244;2023-06-22T06:00:38;15.40;;;13.97;;
10166;SDS011;62970;53.130;8.244;2023-06-22T06:03:08;14.27;;;13.07;;
10166;SDS011;62970;53.130;8.244;2023-06-22T06:05:37;13.73;;;12.55;;
10166;SDS011;62970;53.130;8.244;2023-06-22T06:08:07;13.32;;;12.18;;
10166;SDS011;62970;53.130;8.244;2023-06-22T06:10:41;12.35;;;11.18;;
10166;SDS011;62970;53.130;8.244;2023-06-22T06:13:12;11.98;;;10.95;;
10166;SDS011;62970;53.130;8.244;2023-06-22T06:15:44;11.80;;;10.80;;
10166;SDS011;62970;53.130;8.244;2023-06-22T06:18:13;10.57;;;9.57;;
10166;SDS011;62970;53.130;8.244;2023-06-22T06:20:42;11.68;;;10.57;;
10166;SDS011;62970;53.130;8.244;2023-06-22T06:23:11;11.13;;;10.13;;
10166;SDS011;62970;53.130;8.244;2023-06-22T06:25:43;11.13;;;10.13;;
10166;SDS011;62970;53.130;8.244;2023-06-22T06:28:12;9.63;;;8.82;;
10166;SDS011;62970;53.130;8.244;2023-06-22T06:30:41;9.15;;;8.40;;
10166;SDS011;62970;53.130;8.244;2023-06-22T06:33:12;10.07;;;9.18;;
10166;SDS011;62970;53.130;8.244;2023-06-22T06:35:41;9.88;;;9.02;;
10166;SDS011;62970;53.130;8.244;2023-06-22T06:38:13;8.88;;;8.05;;
10166;SDS011;62970;53.130;8.244;2023-06-22T06:40:44;9.38;;;8.57;;
10166;SDS011;62970;53.130;8.244;2023-06-22T06:43:14;8.55;;;7.85;;
10166;SDS011;62970;53.130;8.244;2023-06-22T06:45:43;9.13;;;8.32;;
10166;SDS011;62970;53.130;8.244;2023-06-22T06:48:12;7.85;;;7.25;;
10166;SDS011;62970;53.130;8.244;2023-06-22T06:50:42;8.23;;;7.45;;
10166;SDS011;62970;53.130;8.244;2023-06-22T06:53:12;7.65;;;7.05;;
10166;SDS011;62970;53.130;8.244;2023-06-22T06:55:41;7.88;;;7.18;;
10166;SDS011;62970;53.130;8.244;2023-06-22T06:58:13;7.75;;;7.05;;
10166;SDS011;62970;53.130;8.244;2023-06-22T07:00:42;8.90;;;7.65;;
10166;SDS011;62970;53.130;8.244;2023-06-22T07:03:12;6.85;;;6.30;;
10166;SDS011;62970;53.130;8.244;2023-06-22T07:05:41;7.70;;;6.97;;
10166;SDS011;62970;53.130;8.244;2023-06-22T07:08:10;6.95;;;6.28;;
10166;SDS011;62970;53.130;8.244;2023-06-22T07:10:39;6.65;;;6.10;;
10166;SDS011;62970;53.130;8.244;2023-06-22T07:13:14;6.03;;;5.53;;
10166;SDS011;62970;53.130;8.244;2023-06-22T07:15:43;6.45;;;5.85;;
10166;SDS011;62970;53.130;8.244;2023-06-22T07:18:12;6.43;;;5.93;;
10166;SDS011;62970;53.130;8.244;2023-06-22T07:20:42;6.43;;;5.82;;
10166;SDS011;62970;53.130;8.244;2023-06-22T07:23:11;6.70;;;6.10;;
10166;SDS011;62970;53.130;8.244;2023-06-22T07:25:40;6.00;;;5.50;;
10166;SDS011;62970;53.130;8.244;2023-06-22T07:28:12;5.35;;;4.93;;
10166;SDS011;62970;53.130;8.244;2023-06-22T07:30:41;5.65;;;5.15;;
10166;SDS011;62970;53.130;8.244;2023-06-22T07:33:10;5.75;;;5.28;;
10166;SDS011;62970;53.130;8.244;2023-06-22T07:35:39;4.88;;;4.47;;
10166;SDS011;62970;53.130;8.244;2023-06-22T07:38:09;4.97;;;4.57;;
10166;SDS011;62970;53.130;8.244;2023-06-22T07:40:39;5.70;;;5.18;;
10166;SDS011;62970;53.130;8.244;2023-06-22T07:43:12;5.55;;;5.03;;
10166;SDS011;62970;53.130;8.244;2023-06-22T07:45:44;4.88;;;4.47;;
10166;SDS011;62970;53.130;8.244;2023-06-22T07:48:20;5.00;;;4.60;;
10166;SDS011;62970;53.130;8.244;2023-06-22T07:50:49;5.40;;;5.00;;
10166;SDS011;62970;53.130;8.244;2023-06-22T07:53:18;4.90;;;4.50;;
10166;SDS011;62970;53.130;8.244;2023-06-22T07:55:48;5.13;;;4.72;;
10166;SDS011;62970;53.130;8.244;2023-06-22T07:58:20;5.18;;;4.78;;
10166;SDS011;62970;53.130;8.244;2023-06-22T08:00:50;4.88;;;4.47;;
10166;SDS011;62970;53.130;8.244;2023-06-22T08:03:19;5.65;;;5.13;;
10166;SDS011;62970;53.130;8.244;2023-06-22T08:05:48;5.18;;;4.75;;
10166;SDS011;62970;53.130;8.244;2023-06-22T08:08:17;5.35;;;4.95;;
10166;SDS011;62970;53.130;8.244;2023-06-22T08:10:47;4.72;;;4.35;;
10166;SDS011;62970;53.130;8.244;2023-06-22T08:13:21;5.63;;;5.10;;
10166;SDS011;62970;53.130;8.244;2023-06-22T08:15:50;5.65;;;5.25;;
10166;SDS011;62970;53.130;8.244;2023-06-22T08:18:19;5.03;;;4.63;;
10166;SDS011;62970;53.130;8.244;2023-06-22T08:20:49;4.93;;;4.53;;
10166;SDS011;62970;53.130;8.244;2023-06-22T08:23:18;5.95;;;5.30;;
10166;SDS011;62970;53.130;8.244;2023-06-22T08:25:47;5.15;;;4.72;;
10166;SDS011;62970;53.130;8.244;2023-06-22T08:28:17;4.75;;;4.35;;
10166;SDS011;62970;53.130;8.244;2023-06-22T08:30:49;5.68;;;5.18;;
10166;SDS011;62970;53.130;8.244;2023-06-22T08:33:20;4.53;;;4.22;;
10166;SDS011;62970;53.130;8.244;2023-06-22T08:35:53;4.75;;;4.35;;
10166;SDS011;62970;53.130;8.244;2023-06-22T08:38:23;4.93;;;4.53;;
10166;SDS011;62970;53.130;8.244;2023-06-22T08:40:52;4.80;;;4.40;;
10166;SDS011;62970;53.130;8.244;2023-06-22T08:43:38;5.35;;;4.95;;
10166;SDS011;62970;53.130;8.244;2023-06-22T08:46:09;5.18;;;4.65;;
10166;SDS011;62970;53.130;8.244;2023-06-22T08:48:38;5.63;;;5.13;;
10166;SDS011;62970;53.130;8.244;2023-06-22T08:51:08;5.47;;;4.97;;
10166;SDS011;62970;53.130;8.244;2023-06-22T08:53:39;4.90;;;4.40;;
10166;SDS011;62970;53.130;8.244;2023-06-22T08:56:10;5.32;;;4.88;;
10166;SDS011;62970;53.130;8.244;2023-06-22T08:58:42;5.20;;;4.78;;
10166;SDS011;62970;53.130;8.244;2023-06-22T09:01:11;6.18;;;5.00;;
10166;SDS011;62970;53.130;8.244;2023-06-22T09:03:40;5.45;;;4.82;;
10166;SDS011;62970;53.130;8.244;2023-06-22T09:06:19;5.20;;;4.80;;
10166;SDS011;62970;53.130;8.244;2023-06-22T09:08:48;5.85;;;5.35;;
10166;SDS011;62970;53.130;8.244;2023-06-22T09:11:17;5.50;;;4.90;;
10166;SDS011;62970;53.130;8.244;2023-06-22T09:13:49;6.43;;;4.63;;
10166;SDS011;62970;53.130;8.244;2023-06-22T09:16:19;5.13;;;4.13;;
10166;SDS011;62970;53.130;8.244;2023-06-22T09:18:48;5.63;;;5.18;;
10166;SDS011;62970;53.130;8.244;2023-06-22T09:21:18;4.72;;;4.32;;
10166;SDS011;62970;53.130;8.244;2023-06-22T09:23:47;4.75;;;4.28;;
10166;SDS011;62970;53.130;8.244;2023-06-22T09:26:16;6.55;;;4.97;;
10166;SDS011;62970;53.130;8.244;2023-06-22T09:28:49;5.07;;;4.57;;
10166;SDS011;62970;53.130;8.244;2023-06-22T09:31:18;4.65;;;4.25;;
10166;SDS011;62970;53.130;8.244;2023-06-22T09:33:50;4.85;;;4.35;;
10166;SDS011;62970;53.130;8.244;2023-06-22T09:36:21;4.60;;;4.20;;
10166;SDS011;62970;53.130;8.244;2023-06-22T09:38:50;4.50;;;4.10;;
10166;SDS011;62970;53.130;8.244;2023-06-22T09:41:20;4.30;;;3.90;;
10166;SDS011;62970;53.130;8.244;2023-06-22T09:43:52;4.88;;;3.63;;
10166;SDS011;62970;53.130;8.244;2023-06-22T09:46:22;4.00;;;3.50;;
10166;SDS011;62970;53.130;8.244;2023-06-22T09:48:52;3.45;;;3.15;;
10166;SDS011;62970;53.130;8.244;2023-06-22T09:51:22;4.53;;;4.07;;
10166;SDS011;62970;53.130;8.244;2023-06-22T09:53:51;3.25;;;3.05;;
10166;SDS011;62970;53.130;8.244;2023-06-22T09:56:21;3.83;;;3.53;;
10166;SDS011;62970;53.130;8.244;2023-06-22T09:58:56;3.58;;;3.28;;
10166;SDS011;62970;53.130;8.244;2023-06-22T10:01:25;3.35;;;3.05;;
10166;SDS011;62970;53.130;8.244;2023-06-22T10:03:55;5.15;;;3.28;;
10166;SDS011;62970;53.130;8.244;2023-06-22T10:06:24;4.60;;;3.50;;
10166;SDS011;62970;53.130;8.244;2023-06-22T10:08:54;3.63;;;3.33;;
10166;SDS011;62970;53.130;8.244;2023-06-22T10:11:23;3.83;;;3.35;;
10166;SDS011;62970;53.130;8.244;2023-06-22T10:13:58;3.80;;;3.45;;
10166;SDS011;62970;53.130;8.244;2023-06-22T10:16:30;3.97;;;3.58;;
10166;SDS011;62970;53.130;8.244;2023-06-22T10:19:00;3.95;;;3.22;;
10166;SDS011;62970;53.130;8.244;2023-06-22T10:21:31;3.90;;;3.60;;
10166;SDS011;62970;53.130;8.244;2023-06-22T10:24:00;4.20;;;3.55;;
10166;SDS011;62970;53.130;8.244;2023-06-22T10:26:31;5.00;;;4.53;;
10166;SDS011;62970;53.130;8.244;2023-06-22T10:29:03;4.65;;;4.25;;
10166;SDS011;62970;53.130;8.244;2023-06-22T10:31:32;4.15;;;3.78;;
10166;SDS011;62970;53.130;8.244;2023-06-22T10:34:01;4.22;;;3.85;;
10166;SDS011;62970;53.130;8.244;2023-06-22T10:36:31;4.45;;;4.03;;
10166;SDS011;62970;53.130;8.244;2023-06-22T10:39:01;4.75;;;4.13;;
10166;SDS011;62970;53.130;8.244;2023-06-22T10:41:31;5.00;;;4.60;;
10166;SDS011;62970;53.130;8.244;2023-06-22T10:44:00;4.50;;;4.20;;
10166;SDS011;62970;53.130;8.244;2023-06-22T10:46:32;5.07;;;4.68;;
10166;SDS011;62970;53.130;8.244;2023-06-22T10:49:02;4.97;;;4.47;;
10166;SDS011;62970;53.130;8.244;2023-06-22T10:51:31;6.20;;;3.88;;
10166;SDS011;62970;53.130;8.244;2023-06-22T10:54:00;5.13;;;4.63;;
10166;SDS011;62970;53.130;8.244;2023-06-22T10:56:30;4.80;;;4.40;;
10166;SDS011;62970;53.130;8.244;2023-06-22T10:58:59;5.03;;;4.57;;
10166;SDS011;62970;53.130;8.244;2023-06-22T11:01:31;4.70;;;4.30;;
10166;SDS011;62970;53.130;8.244;2023-06-22T11:04:02;4.97;;;4.50;;
10166;SDS011;62970;53.130;8.244;2023-06-22T11:06:31;4.32;;;4.00;;
10166;SDS011;62970;53.130;8.244;2023-06-22T11:09:01;4.18;;;3.88;;
10166;SDS011;62970;53.130;8.244;2023-06-22T11:11:30;4.55;;;4.18;;
10166;SDS011;62970;53.130;8.244;2023-06-22T11:13:59;4.60;;;4.20;;
10166;SDS011;62970;53.130;8.244;2023-06-22T11:16:31;5.53;;;5.07;;
10166;SDS011;62970;53.130;8.244;2023-06-22T11:19:00;6.20;;;5.60;;
10166;SDS011;62970;53.130;8.244;2023-06-22T11:21:30;5.75;;;5.25;;
10166;SDS011;62970;53.130;8.244;2023-06-22T11:23:59;5.60;;;5.13;;
10166;SDS011;62970;53.130;8.244;2023-06-22T11:26:28;5.00;;;4.60;;
10166;SDS011;62970;53.130;8.244;2023-06-22T11:28:58;5.30;;;4.80;;
10166;SDS011;62970;53.130;8.244;2023-06-22T11:31:33;5.10;;;4.70;;
10166;SDS011;62970;53.130;8.244;2023-06-22T11:34:03;4.90;;;4.50;;
10166;SDS011;62970;53.130;8.244;2023-06-22T11:36:33;5.60;;;5.20;;
10166;SDS011;62970;53.130;8.244;2023-06-22T11:39:03;5.00;;;4.60;;
10166;SDS011;62970;53.130;8.244;2023-06-22T11:41:34;5.68;;;5.07;;
10166;SDS011;62970;53.130;8.244;2023-06-22T11:44:03;5.28;;;4.88;;
10166;SDS011;62970;53.130;8.244;2023-06-22T11:46:35;4.65;;;4.25;;
10166;SDS011;62970;53.130;8.244;2023-06-22T11:49:05;6.13;;;5.53;;
10166;SDS011;62970;53.130;8.244;2023-06-22T11:51:34;5.07;;;4.68;;
10166;SDS011;62970;53.130;8.244;2023-06-22T11:54:03;5.45;;;5.00;;
10166;SDS011;62970;53.130;8.244;2023-06-22T11:56:32;4.15;;;3.85;;
10166;SDS011;62970;53.130;8.244;2023-06-22T11:59:01;5.03;;;4.63;;
10166;SDS011;62970;53.130;8.244;2023-06-22T12:01:31;5.10;;;4.60;;
10166;SDS011;62970;53.130;8.244;2023-06-22T12:04:03;4.70;;;4.30;;
10166;SDS011;62970;53.130;8.244;2023-06-22T12:06:35;5.25;;;4.80;;
10166;SDS011;62970;53.130;8.244;2023-06-22T12:09:08;4.65;;;4.25;;
10166;SDS011;62970;53.130;8.244;2023-06-22T12:11:38;5.32;;;4.82;;
10166;SDS011;62970;53.130;8.244;2023-06-22T12:14:08;5.10;;;4.70;;
10166;SDS011;62970;53.130;8.244;2023-06-22T12:16:37;5.20;;;4.70;;
10166;SDS011;62970;53.130;8.244;2023-06-22T12:19:09;5.75;;;5.25;;
10166;SDS011;62970;53.130;8.244;2023-06-22T12:21:38;4.80;;;4.40;;
10166;SDS011;62970;53.130;8.244;2023-06-22T12:24:10;4.88;;;4.47;;
10166;SDS011;62970;53.130;8.244;2023-06-22T12:26:39;5.38;;;4.97;;
10166;SDS011;62970;53.130;8.244;2023-06-22T12:29:09;5.20;;;4.70;;
10166;SDS011;62970;53.130;8.244;2023-06-22T12:31:38;5.38;;;4.88;;
10166;SDS011;62970;53.130;8.244;2023-06-22T12:34:10;4.88;;;4.45;;
10166;SDS011;62970;53.130;8.244;2023-06-22T12:36:39;5.43;;;5.00;;
10166;SDS011;62970;53.130;8.244;2023-06-22T12:39:09;5.78;;;5.38;;
10166;SDS011;62970;53.130;8.244;2023-06-22T12:41:38;5.60;;;5.10;;
10166;SDS011;62970;53.130;8.244;2023-06-22T12:44:07;6.35;;;5.85;;
10166;SDS011;62970;53.130;8.244;2023-06-22T12:46:36;5.85;;;5.38;;
10166;SDS011;62970;53.130;8.244;2023-06-22T12:49:06;5.80;;;5.30;;
10166;SDS011;62970;53.130;8.244;2023-06-22T12:51:39;5.78;;;5.32;;
10166;SDS011;62970;53.130;8.244;2023-06-22T12:54:09;5.00;;;4.53;;
10166;SDS011;62970;53.130;8.244;2023-06-22T12:56:39;5.50;;;5.10;;
10166;SDS011;62970;53.130;8.244;2023-06-22T12:59:09;5.32;;;4.82;;
10166;SDS011;62970;53.130;8.244;2023-06-22T13:01:38;5.40;;;4.85;;
10166;SDS011;62970;53.130;8.244;2023-06-22T13:04:11;5.07;;;4.68;;
10166;SDS011;62970;53.130;8.244;2023-06-22T13:06:41;4.65;;;4.25;;
10166;SDS011;62970;53.130;8.244;2023-06-22T13:09:13;4.90;;;4.40;;
10166;SDS011;62970;53.130;8.244;2023-06-22T13:11:43;5.45;;;5.00;;
10166;SDS011;62970;53.130;8.244;2023-06-22T13:14:12;5.97;;;4.45;;
10166;SDS011;62970;53.130;8.244;2023-06-22T13:16:41;5.30;;;4.90;;
10166;SDS011;62970;53.130;8.244;2023-06-22T13:19:13;5.10;;;4.70;;
10166;SDS011;62970;53.130;8.244;2023-06-22T13:21:43;5.70;;;5.20;;
10166;SDS011;62970;53.130;8.244;2023-06-22T13:24:12;5.20;;;4.80;;
10166;SDS011;62970;53.130;8.244;2023-06-22T13:26:41;5.15;;;4.70;;
10166;SDS011;62970;53.130;8.244;2023-06-22T13:29:10;5.15;;;4.75;;
10166;SDS011;62970;53.130;8.244;2023-06-22T13:31:40;5.25;;;4.75;;
10166;SDS011;62970;53.130;8.244;2023-06-22T13:34:09;5.03;;;4.63;;
10166;SDS011;62970;53.130;8.244;2023-06-22T13:36:41;5.20;;;4.80;;
10166;SDS011;62970;53.130;8.244;2023-06-22T13:39:11;5.70;;;5.20;;
10166;SDS011;62970;53.130;8.244;2023-06-22T13:41:40;5.40;;;4.95;;
10166;SDS011;62970;53.130;8.244;2023-06-22T13:44:09;5.18;;;4.78;;
10166;SDS011;62970;53.130;8.244;2023-06-22T13:46:39;5.50;;;5.00;;
10166;SDS011;62970;53.130;8.244;2023-06-22T13:49:08;5.18;;;4.78;;
10166;SDS011;62970;53.130;8.244;2023-06-22T13:51:39;5.22;;;4.82;;
10166;SDS011;62970;53.130;8.244;2023-06-22T13:54:09;5.72;;;5.13;;
10166;SDS011;62970;53.130;8.244;2023-06-22T13:56:40;5.03;;;4.63;;
10166;SDS011;62970;53.130;8.244;2023-06-22T13:59:09;5.22;;;4.75;;
10166;SDS011;62970;53.130;8.244;2023-06-22T14:01:38;6.00;;;5.50;;
10166;SDS011;62970;53.130;8.244;2023-06-22T14:04:08;5.22;;;4.82;;
10166;SDS011;62970;53.130;8.244;2023-06-22T14:06:41;5.97;;;5.47;;
10166;SDS011;62970;53.130;8.244;2023-06-22T14:09:10;5.78;;;5.30;;
10166;SDS011;62970;53.130;8.244;2023-06-22T14:11:39;5.38;;;4.88;;
10166;SDS011;62970;53.130;8.244;2023-06-22T14:14:08;5.20;;;4.68;;
10166;SDS011;62970;53.130;8.244;2023-06-22T14:16:38;5.32;;;4.82;;
10166;SDS011;62970;53.130;8.244;2023-06-22T14:19:07;5.07;;;4.68;;
10166;SDS011;62970;53.130;8.244;2023-06-22T14:21:36;5.13;;;4.60;;
10166;SDS011;62970;53.130;8.244;2023-06-22T14:24:08;4.90;;;4.40;;
10166;SDS011;62970;53.130;8.244;2023-06-22T14:26:37;7.88;;;3.92;;
10166;SDS011;62970;53.130;8.244;2023-06-22T14:29:06;4.63;;;4.13;;
10166;SDS011;62970;53.130;8.244;2023-06-22T14:31:35;4.45;;;3.95;;
10166;SDS011;62970;53.130;8.244;2023-06-22T14:34:05;4.63;;;4.03;;
10166;SDS011;62970;53.130;8.244;2023-06-22T14:36:34;5.82;;;5.10;;
10166;SDS011;62970;53.130;8.244;2023-06-22T14:39:03;5.30;;;4.78;;
10166;SDS011;62970;53.130;8.244;2023-06-22T14:41:35;6.90;;;5.03;;
10166;SDS011;62970;53.130;8.244;2023-06-22T14:44:04;6.05;;;5.45;;
10166;SDS011;62970;53.130;8.244;2023-06-22T14:46:33;6.60;;;5.18;;
10166;SDS011;62970;53.130;8.244;2023-06-22T14:49:03;6.40;;;4.75;;
10166;SDS011;62970;53.130;8.244;2023-06-22T14:51:32;5.13;;;4.63;;
10166;SDS011;62970;53.130;8.244;2023-06-22T14:54:01;5.80;;;4.95;;
10166;SDS011;62970;53.130;8.244;2023-06-22T14:56:37;5.75;;;4.82;;
10166;SDS011;62970;53.130;8.244;2023-06-22T14:59:06;6.93;;;4.80;;
10166;SDS011;62970;53.130;8.244;2023-06-22T15:01:36;6.07;;;5.13;;
10166;SDS011;62970;53.130;8.244;2023-06-22T15:04:05;4.77;;;4.37;;
10166;SDS011;62970;53.130;8.244;2023-06-22T15:06:36;5.07;;;4.60;;
10166;SDS011;62970;53.130;8.244;2023-06-22T15:09:05;5.23;;;4.70;;
10166;SDS011;62970;53.130;8.244;2023-06-22T15:11:37;4.50;;;4.10;;
10166;SDS011;62970;53.130;8.244;2023-06-22T15:14:06;5.27;;;4.10;;
10166;SDS011;62970;53.130;8.244;2023-06-22T15:16:36;4.47;;;3.90;;
10166;SDS011;62970;53.130;8.244;2023-06-22T15:19:05;5.03;;;4.20;;
10166;SDS011;62970;53.130;8.244;2023-06-22T15:21:34;4.90;;;4.40;;
10166;SDS011;62970;53.130;8.244;2023-06-22T15:24:04;4.83;;;4.43;;
10166;SDS011;62970;53.130;8.244;2023-06-22T15:26:33;5.57;;;5.07;;
10166;SDS011;62970;53.130;8.244;2023-06-22T15:29:05;6.20;;;4.37;;
10166;SDS011;62970;53.130;8.244;2023-06-22T15:31:34;5.10;;;4.57;;
10166;SDS011;62970;53.130;8.244;2023-06-22T15:34:03;5.10;;;3.93;;
10166;SDS011;62970;53.130;8.244;2023-06-22T15:36:34;6.17;;;4.33;;
10166;SDS011;62970;53.130;8.244;2023-06-22T15:39:03;5.07;;;4.30;;
10166;SDS011;62970;53.130;8.244;2023-06-22T15:41:32;6.37;;;4.50;;
10166;SDS011;62970;53.130;8.244;2023-06-22T15:44:04;6.67;;;4.63;;
10166;SDS011;62970;53.130;8.244;2023-06-22T15:46:34;6.70;;;4.10;;
10166;SDS011;62970;53.130;8.244;2023-06-22T15:49:03;4.33;;;3.93;;
10166;SDS011;62970;53.130;8.244;2023-06-22T15:51:33;6.30;;;3.73;;
10166;SDS011;62970;53.130;8.244;2023-06-22T15:54:02;4.90;;;4.10;;
10166;SDS011;62970;53.130;8.244;2023-06-22T15:56:31;4.67;;;4.23;;
10166;SDS011;62970;53.130;8.244;2023-06-22T15:59:00;5.23;;;4.20;;
10166;SDS011;62970;53.130;8.244;2023-06-22T16:01:32;4.20;;;3.90;;
10166;SDS011;62970;53.130;8.244;2023-06-22T16:04:01;5.03;;;3.77;;
10166;SDS011;62970;53.130;8.244;2023-06-22T16:06:31;4.00;;;3.70;;
10166;SDS011;62970;53.130;8.244;2023-06-22T16:09:01;4.20;;;3.80;;
10166;SDS011;62970;53.130;8.244;2023-06-22T16:11:31;4.53;;;4.00;;
10166;SDS011;62970;53.130;8.244;2023-06-22T16:14:00;4.30;;;3.90;;
10166;SDS011;62970;53.130;8.244;2023-06-22T16:16:32;6.23;;;4.07;;
10166;SDS011;62970;53.130;8.244;2023-06-22T16:19:01;4.50;;;4.00;;
10166;SDS011;62970;53.130;8.244;2023-06-22T16:21:30;4.17;;;3.70;;
10166;SDS011;62970;53.130;8.244;2023-06-22T16:23:59;6.00;;;4.47;;
10166;SDS011;62970;53.130;8.244;2023-06-22T16:26:29;5.00;;;4.23;;
10166;SDS011;62970;53.130;8.244;2023-06-22T16:29:05;4.93;;;4.00;;
10166;SDS011;62970;53.130;8.244;2023-06-22T16:31:44;4.47;;;4.07;;
10166;SDS011;62970;53.130;8.244;2023-06-22T16:34:13;5.70;;;4.57;;
10166;SDS011;62970;53.130;8.244;2023-06-22T16:36:42;6.50;;;4.10;;
10166;SDS011;62970;53.130;8.244;2023-06-22T16:39:12;4.00;;;3.60;;
10166;SDS011;62970;53.130;8.244;2023-06-22T16:41:41;4.37;;;3.97;;
10166;SDS011;62970;53.130;8.244;2023-06-22T16:44:11;4.40;;;4.00;;
10166;SDS011;62970;53.130;8.244;2023-06-22T16:46:43;3.50;;;3.20;;
10166;SDS011;62970;53.130;8.244;2023-06-22T16:49:13;4.27;;;3.60;;
10166;SDS011;62970;53.130;8.244;2023-06-22T16:51:42;4.33;;;3.93;;
10166;SDS011;62970;53.130;8.244;2023-06-22T16:54:11;6.67;;;4.30;;
10166;SDS011;62970;53.130;8.244;2023-06-22T16:56:41;5.27;;;4.00;;
10166;SDS011;62970;53.130;8.244;2023-06-22T16:59:12;4.50;;;3.83;;
10166;SDS011;62970;53.130;8.244;2023-06-22T17:01:47;4.77;;;3.70;;
10166;SDS011;62970;53.130;8.244;2023-06-22T17:04:20;4.10;;;3.70;;
10166;SDS011;62970;53.130;8.244;2023-06-22T17:06:53;4.03;;;3.60;;
10166;SDS011;62970;53.130;8.244;2023-06-22T17:09:26;3.60;;;3.20;;
10166;SDS011;62970;53.130;8.244;2023-06-22T17:11:57;4.57;;;3.70;;
10166;SDS011;62970;53.130;8.244;2023-06-22T17:14:30;3.60;;;3.30;;
10166;SDS011;62970;53.130;8.244;2023-06-22T17:17:02;3.37;;;3.07;;
10166;SDS011;62970;53.130;8.244;2023-06-22T17:19:32;3.27;;;3.00;;
10166;SDS011;62970;53.130;8.244;2023-06-22T17:22:01;3.17;;;2.73;;
10166;SDS011;62970;53.130;8.244;2023-06-22T17:24:33;3.73;;;3.10;;